sensor_id;sensor_type;location;lat;lon;timestamp;temperature;humidity
15906;DHT22;8051;50.820;4.884;2023-08-06T00:01:13;14.50;99.90
15906;DHT22;8051;50.820;4.884;2023-08-06T00:03:41;14.50;99.90
15906;DHT22;8051;50.820;4.884;2023-08-06T00:06:08;14.60;99.90
15906;DHT22;8051;50.820;4.884;2023-08-06T00:08:35;14.50;99.90
15906;DHT22;8051;50.820;4.884;2023-08-06T00:11:03;14.60;99.90
15906;DHT22;8051;50.820;4.884;2023-08-06T00:13:30;14.70;99.90
15906;DHT22;8051;50.820;4.884;2023-08-06T00:16:09;14.70;99.90
15906;DHT22;8051;50.820;4.884;2023-08-06T00:18:38;14.60;99.90
15906;DHT22;8051;50.820;4.884;2023-08-06T00:21:05;14.60;99.90
15906;DHT22;8051;50.820;4.884;2023-08-06T00:23:32;14.60;99.90
15906;DHT22;8051;50.820;4.884;2023-08-06T00:26:00;14.70;99.90
15906;DHT22;8051;50.820;4.884;2023-08-06T00:28:27;14.60;99.90
15906;DHT22;8051;50.820;4.884;2023-08-06T00:30:55;14.60;99.90
15906;DHT22;8051;50.820;4.884;2023-08-06T00:33:23;14.70;99.90
15906;DHT22;8051;50.820;4.884;2023-08-06T00:35:52;14.60;99.90
15906;DHT22;8051;50.820;4.884;2023-08-06T00:38:19;14.60;99.90
15906;DHT22;8051;50.820;4.884;2023-08-06T00:40:47;14.60;99.90
15906;DHT22;8051;50.820;4.884;2023-08-06T00:43:14;14.60;99.90
15906;DHT22;8051;50.820;4.884;2023-08-06T00:45:42;14.60;99.90
15906;DHT22;8051;50.820;4.884;2023-08-06T00:48:10;14.60;99.90
15906;DHT22;8051;50.820;4.884;2023-08-06T00:50:38;14.60;99.90
15906;DHT22;8051;50.820;4.884;2023-08-06T00:53:07;14.60;99.90
15906;DHT22;8051;50.820;4.884;2023-08-06T00:55:35;14.60;99.90
15906;DHT22;8051;50.820;4.884;2023-08-06T00:58:02;14.60;99.90
15906;DHT22;8051;50.820;4.884;2023-08-06T01:00:30;14.70;99.90
15906;DHT22;8051;50.820;4.884;2023-08-06T01:02:58;14.60;99.90
15906;DHT22;8051;50.820;4.884;2023-08-06T01:05:25;14.70;99.90
15906;DHT22;8051;50.820;4.884;2023-08-06T01:08:05;14.70;99.90
15906;DHT22;8051;50.820;4.884;2023-08-06T01:10:44;14.70;99.90
15906;DHT22;8051;50.820;4.884;2023-08-06T01:13:22;14.70;99.90
15906;DHT22;8051;50.820;4.884;2023-08-06T01:15:53;14.70;99.90
15906;DHT22;8051;50.820;4.884;2023-08-06T01:18:23;14.70;99.90
15906;DHT22;8051;50.820;4.884;2023-08-06T01:20:51;14.70;99.90
15906;DHT22;8051;50.820;4.884;2023-08-06T01:23:19;14.80;99.90
15906;DHT22;8051;50.820;4.884;2023-08-06T01:25:52;14.80;99.90
15906;DHT22;8051;50.820;4.884;2023-08-06T01:28:30;14.80;99.90
15906;DHT22;8051;50.820;4.884;2023-08-06T01:31:02;14.80;99.90
15906;DHT22;8051;50.820;4.884;2023-08-06T01:33:32;14.90;99.90
15906;DHT22;8051;50.820;4.884;2023-08-06T01:36:04;14.90;99.90
15906;DHT22;8051;50.820;4.884;2023-08-06T01:38:33;14.90;99.90
15906;DHT22;8051;50.820;4.884;2023-08-06T01:41:00;14.80;99.90
15906;DHT22;8051;50.820;4.884;2023-08-06T01:43:28;14.80;99.90
15906;DHT22;8051;50.820;4.884;2023-08-06T01:45:55;14.90;99.90
15906;DHT22;8051;50.820;4.884;2023-08-06T01:48:22;14.90;99.90
15906;DHT22;8051;50.820;4.884;2023-08-06T01:50:50;14.90;99.90
15906;DHT22;8051;50.820;4.884;2023-08-06T01:53:19;14.90;99.90
15906;DHT22;8051;50.820;4.884;2023-08-06T01:55:48;14.90;99.90
15906;DHT22;8051;50.820;4.884;2023-08-06T01:58:16;14.90;99.90
15906;DHT22;8051;50.820;4.884;2023-08-06T02:00:43;14.90;99.90
15906;DHT22;8051;50.820;4.884;2023-08-06T02:03:11;14.90;99.90
15906;DHT22;8051;50.820;4.884;2023-08-06T02:05:38;14.80;99.90
15906;DHT22;8051;50.820;4.884;2023-08-06T02:08:06;14.80;99.90
15906;DHT22;8051;50.820;4.884;2023-08-06T02:10:35;14.80;99.90
15906;DHT22;8051;50.820;4.884;2023-08-06T02:13:03;14.90;99.90
15906;DHT22;8051;50.820;4.884;2023-08-06T02:15:30;14.90;99.90
15906;DHT22;8051;50.820;4.884;2023-08-06T02:17:58;14.90;99.90
15906;DHT22;8051;50.820;4.884;2023-08-06T02:20:27;14.80;99.90
15906;DHT22;8051;50.820;4.884;2023-08-06T02:22:55;14.80;99.90
15906;DHT22;8051;50.820;4.884;2023-08-06T02:25:22;14.80;99.90
15906;DHT22;8051;50.820;4.884;2023-08-06T02:27:52;14.80;99.90
15906;DHT22;8051;50.820;4.884;2023-08-06T02:30:19;14.80;99.90
15906;DHT22;8051;50.820;4.884;2023-08-06T02:32:47;14.80;99.90
15906;DHT22;8051;50.820;4.884;2023-08-06T02:35:15;14.90;99.90
15906;DHT22;8051;50.820;4.884;2023-08-06T02:37:42;14.90;99.90
15906;DHT22;8051;50.820;4.884;2023-08-06T02:40:10;14.90;99.90
15906;DHT22;8051;50.820;4.884;2023-08-06T02:42:38;14.90;99.90
15906;DHT22;8051;50.820;4.884;2023-08-06T02:45:08;14.90;99.90
15906;DHT22;8051;50.820;4.884;2023-08-06T02:47:35;14.90;99.90
15906;DHT22;8051;50.820;4.884;2023-08-06T02:50:03;14.80;99.90
15906;DHT22;8051;50.820;4.884;2023-08-06T02:52:31;14.80;99.90
15906;DHT22;8051;50.820;4.884;2023-08-06T02:54:58;14.90;99.90
15906;DHT22;8051;50.820;4.884;2023-08-06T02:57:26;14.90;99.90
15906;DHT22;8051;50.820;4.884;2023-08-06T02:59:53;14.90;99.90
15906;DHT22;8051;50.820;4.884;2023-08-06T03:02:22;14.90;99.90
15906;DHT22;8051;50.820;4.884;2023-08-06T03:04:50;14.90;99.90
15906;DHT22;8051;50.820;4.884;2023-08-06T03:07:17;14.90;99.90
15906;DHT22;8051;50.820;4.884;2023-08-06T03:09:45;14.90;99.90
15906;DHT22;8051;50.820;4.884;2023-08-06T03:12:12;15.00;99.90
15906;DHT22;8051;50.820;4.884;2023-08-06T03:14:40;15.00;99.90
15906;DHT22;8051;50.820;4.884;2023-08-06T03:17:08;15.00;99.90
15906;DHT22;8051;50.820;4.884;2023-08-06T03:19:37;15.10;99.90
15906;DHT22;8051;50.820;4.884;2023-08-06T03:22:05;15.10;99.90
15906;DHT22;8051;50.820;4.884;2023-08-06T03:24:32;15.00;99.90
15906;DHT22;8051;50.820;4.884;2023-08-06T03:27:00;15.00;99.90
15906;DHT22;8051;50.820;4.884;2023-08-06T03:29:27;15.00;99.90
15906;DHT22;8051;50.820;4.884;2023-08-06T03:31:55;15.00;99.90
15906;DHT22;8051;50.820;4.884;2023-08-06T03:34:22;14.90;99.90
15906;DHT22;8051;50.820;4.884;2023-08-06T03:36:51;14.90;99.90
15906;DHT22;8051;50.820;4.884;2023-08-06T03:39:18;14.90;99.90
15906;DHT22;8051;50.820;4.884;2023-08-06T03:41:45;14.80;99.90
15906;DHT22;8051;50.820;4.884;2023-08-06T03:44:13;14.70;99.90
15906;DHT22;8051;50.820;4.884;2023-08-06T03:46:40;14.70;99.90
15906;DHT22;8051;50.820;4.884;2023-08-06T03:49:08;14.60;99.90
15906;DHT22;8051;50.820;4.884;2023-08-06T03:51:35;14.60;99.90
15906;DHT22;8051;50.820;4.884;2023-08-06T03:54:04;14.60;99.90
15906;DHT22;8051;50.820;4.884;2023-08-06T03:56:32;14.60;99.90
15906;DHT22;8051;50.820;4.884;2023-08-06T03:58:59;14.50;99.90
15906;DHT22;8051;50.820;4.884;2023-08-06T04:01:27;14.50;99.90
15906;DHT22;8051;50.820;4.884;2023-08-06T04:03:54;14.40;99.90
15906;DHT22;8051;50.820;4.884;2023-08-06T04:06:21;14.40;99.90
15906;DHT22;8051;50.820;4.884;2023-08-06T04:08:49;14.30;99.90
15906;DHT22;8051;50.820;4.884;2023-08-06T04:11:18;14.20;99.90
15906;DHT22;8051;50.820;4.884;2023-08-06T04:13:45;14.20;99.90
15906;DHT22;8051;50.820;4.884;2023-08-06T04:16:12;14.20;99.90
15906;DHT22;8051;50.820;4.884;2023-08-06T04:18:40;14.20;99.90
15906;DHT22;8051;50.820;4.884;2023-08-06T04:21:08;14.20;99.90
15906;DHT22;8051;50.820;4.884;2023-08-06T04:23:35;14.20;99.90
15906;DHT22;8051;50.820;4.884;2023-08-06T04:26:03;14.20;99.90
15906;DHT22;8051;50.820;4.884;2023-08-06T04:28:32;14.20;99.90
15906;DHT22;8051;50.820;4.884;2023-08-06T04:30:59;14.20;99.90
15906;DHT22;8051;50.820;4.884;2023-08-06T04:33:28;14.30;99.90
15906;DHT22;8051;50.820;4.884;2023-08-06T04:35:56;14.30;99.90
15906;DHT22;8051;50.820;4.884;2023-08-06T04:38:24;14.30;99.90
15906;DHT22;8051;50.820;4.884;2023-08-06T04:40:52;14.30;99.90
15906;DHT22;8051;50.820;4.884;2023-08-06T04:43:20;14.40;99.90
15906;DHT22;8051;50.820;4.884;2023-08-06T04:45:49;14.40;99.90
15906;DHT22;8051;50.820;4.884;2023-08-06T04:48:17;14.40;99.90
15906;DHT22;8051;50.820;4.884;2023-08-06T04:50:45;14.40;99.90
15906;DHT22;8051;50.820;4.884;2023-08-06T04:53:12;14.40;99.90
15906;DHT22;8051;50.820;4.884;2023-08-06T04:55:40;14.50;99.90
15906;DHT22;8051;50.820;4.884;2023-08-06T04:58:09;14.50;99.90
15906;DHT22;8051;50.820;4.884;2023-08-06T05:00:36;14.50;99.90
15906;DHT22;8051;50.820;4.884;2023-08-06T05:03:06;14.60;99.90
15906;DHT22;8051;50.820;4.884;2023-08-06T05:05:33;14.60;99.90
15906;DHT22;8051;50.820;4.884;2023-08-06T05:08:01;14.60;99.90
15906;DHT22;8051;50.820;4.884;2023-08-06T05:10:29;14.60;99.90
15906;DHT22;8051;50.820;4.884;2023-08-06T05:12:56;14.50;99.90
15906;DHT22;8051;50.820;4.884;2023-08-06T05:15:24;14.40;99.90
15906;DHT22;8051;50.820;4.884;2023-08-06T05:17:52;14.30;99.90
15906;DHT22;8051;50.820;4.884;2023-08-06T05:20:21;14.20;99.90
15906;DHT22;8051;50.820;4.884;2023-08-06T05:22:48;14.20;99.90
15906;DHT22;8051;50.820;4.884;2023-08-06T05:25:17;14.10;99.90
15906;DHT22;8051;50.820;4.884;2023-08-06T05:27:44;14.10;99.90
15906;DHT22;8051;50.820;4.884;2023-08-06T05:30:12;14.00;99.90
15906;DHT22;8051;50.820;4.884;2023-08-06T05:32:39;13.90;99.90
15906;DHT22;8051;50.820;4.884;2023-08-06T05:35:07;13.80;99.90
15906;DHT22;8051;50.820;4.884;2023-08-06T05:37:36;13.70;99.90
15906;DHT22;8051;50.820;4.884;2023-08-06T05:40:04;13.60;99.90
15906;DHT22;8051;50.820;4.884;2023-08-06T05:42:31;13.50;99.90
15906;DHT22;8051;50.820;4.884;2023-08-06T05:44:59;13.50;99.90
15906;DHT22;8051;50.820;4.884;2023-08-06T05:47:26;13.50;99.90
15906;DHT22;8051;50.820;4.884;2023-08-06T05:49:54;13.50;99.90
15906;DHT22;8051;50.820;4.884;2023-08-06T05:52:21;13.50;99.90
15906;DHT22;8051;50.820;4.884;2023-08-06T05:54:50;13.50;99.90
15906;DHT22;8051;50.820;4.884;2023-08-06T05:57:17;13.50;99.90
15906;DHT22;8051;50.820;4.884;2023-08-06T05:59:45;13.50;99.90
15906;DHT22;8051;50.820;4.884;2023-08-06T06:02:12;13.50;99.90
15906;DHT22;8051;50.820;4.884;2023-08-06T06:04:41;13.50;99.90
15906;DHT22;8051;50.820;4.884;2023-08-06T06:07:08;13.50;99.90
15906;DHT22;8051;50.820;4.884;2023-08-06T06:09:36;13.50;99.90
15906;DHT22;8051;50.820;4.884;2023-08-06T06:12:07;13.50;99.90
15906;DHT22;8051;50.820;4.884;2023-08-06T06:14:35;13.60;99.90
15906;DHT22;8051;50.820;4.884;2023-08-06T06:17:02;13.50;99.90
15906;DHT22;8051;50.820;4.884;2023-08-06T06:19:30;13.60;99.90
15906;DHT22;8051;50.820;4.884;2023-08-06T06:21:57;13.50;99.90
15906;DHT22;8051;50.820;4.884;2023-08-06T06:24:25;13.40;99.90
15906;DHT22;8051;50.820;4.884;2023-08-06T06:26:52;13.40;99.90
15906;DHT22;8051;50.820;4.884;2023-08-06T06:29:21;13.40;99.90
15906;DHT22;8051;50.820;4.884;2023-08-06T06:31:49;13.40;99.90
15906;DHT22;8051;50.820;4.884;2023-08-06T06:34:16;13.40;99.90
15906;DHT22;8051;50.820;4.884;2023-08-06T06:36:43;13.40;99.90
15906;DHT22;8051;50.820;4.884;2023-08-06T06:39:11;13.50;99.90
15906;DHT22;8051;50.820;4.884;2023-08-06T06:41:39;13.50;99.90
15906;DHT22;8051;50.820;4.884;2023-08-06T06:44:06;13.50;99.90
15906;DHT22;8051;50.820;4.884;2023-08-06T06:46:35;13.60;99.90
15906;DHT22;8051;50.820;4.884;2023-08-06T06:49:03;13.50;99.90
15906;DHT22;8051;50.820;4.884;2023-08-06T06:51:30;13.50;99.90
15906;DHT22;8051;50.820;4.884;2023-08-06T06:53:58;13.40;99.90
15906;DHT22;8051;50.820;4.884;2023-08-06T06:56:25;13.40;99.90
15906;DHT22;8051;50.820;4.884;2023-08-06T06:58:53;13.40;99.90
15906;DHT22;8051;50.820;4.884;2023-08-06T07:01:21;13.40;99.90
15906;DHT22;8051;50.820;4.884;2023-08-06T07:03:50;13.40;99.90
15906;DHT22;8051;50.820;4.884;2023-08-06T07:06:17;13.30;99.90
15906;DHT22;8051;50.820;4.884;2023-08-06T07:08:45;13.40;99.90
15906;DHT22;8051;50.820;4.884;2023-08-06T07:11:12;13.40;99.90
15906;DHT22;8051;50.820;4.884;2023-08-06T07:13:40;13.40;99.90
15906;DHT22;8051;50.820;4.884;2023-08-06T07:16:07;13.40;99.90
15906;DHT22;8051;50.820;4.884;2023-08-06T07:18:36;13.40;99.90
15906;DHT22;8051;50.820;4.884;2023-08-06T07:21:05;13.40;99.90
15906;DHT22;8051;50.820;4.884;2023-08-06T07:23:32;13.40;99.90
15906;DHT22;8051;50.820;4.884;2023-08-06T07:26:00;13.40;99.90
15906;DHT22;8051;50.820;4.884;2023-08-06T07:28:27;13.50;99.90
15906;DHT22;8051;50.820;4.884;2023-08-06T07:30:55;13.50;99.90
15906;DHT22;8051;50.820;4.884;2023-08-06T07:33:22;13.50;99.90
15906;DHT22;8051;50.820;4.884;2023-08-06T07:35:50;13.60;99.90
15906;DHT22;8051;50.820;4.884;2023-08-06T07:38:18;13.60;99.90
15906;DHT22;8051;50.820;4.884;2023-08-06T07:40:46;13.60;99.90
15906;DHT22;8051;50.820;4.884;2023-08-06T07:43:14;13.60;99.90
15906;DHT22;8051;50.820;4.884;2023-08-06T07:45:41;13.70;99.90
15906;DHT22;8051;50.820;4.884;2023-08-06T07:48:09;13.60;99.90
15906;DHT22;8051;50.820;4.884;2023-08-06T07:50:36;13.60;99.90
15906;DHT22;8051;50.820;4.884;2023-08-06T07:53:03;13.60;99.90
15906;DHT22;8051;50.820;4.884;2023-08-06T07:55:32;13.70;99.90
15906;DHT22;8051;50.820;4.884;2023-08-06T07:58:00;13.70;99.90
15906;DHT22;8051;50.820;4.884;2023-08-06T08:00:29;13.80;99.90
15906;DHT22;8051;50.820;4.884;2023-08-06T08:02:57;13.80;99.90
15906;DHT22;8051;50.820;4.884;2023-08-06T08:05:24;13.80;99.90
15906;DHT22;8051;50.820;4.884;2023-08-06T08:07:51;13.80;99.90
15906;DHT22;8051;50.820;4.884;2023-08-06T08:10:19;13.80;99.90
15906;DHT22;8051;50.820;4.884;2023-08-06T08:12:48;13.70;99.90
15906;DHT22;8051;50.820;4.884;2023-08-06T08:15:15;13.70;99.90
15906;DHT22;8051;50.820;4.884;2023-08-06T08:17:43;13.60;99.90
15906;DHT22;8051;50.820;4.884;2023-08-06T08:20:11;13.50;99.90
15906;DHT22;8051;50.820;4.884;2023-08-06T08:22:38;13.50;99.90
15906;DHT22;8051;50.820;4.884;2023-08-06T08:25:06;13.50;99.90
15906;DHT22;8051;50.820;4.884;2023-08-06T08:27:34;13.80;99.90
15906;DHT22;8051;50.820;4.884;2023-08-06T08:30:03;14.00;99.90
15906;DHT22;8051;50.820;4.884;2023-08-06T08:32:31;14.10;99.90
15906;DHT22;8051;50.820;4.884;2023-08-06T08:34:59;14.30;99.90
15906;DHT22;8051;50.820;4.884;2023-08-06T08:37:26;14.40;99.90
15906;DHT22;8051;50.820;4.884;2023-08-06T08:39:53;14.50;99.90
15906;DHT22;8051;50.820;4.884;2023-08-06T08:42:21;14.70;99.90
15906;DHT22;8051;50.820;4.884;2023-08-06T08:44:49;14.70;99.90
15906;DHT22;8051;50.820;4.884;2023-08-06T08:47:18;14.80;99.90
15906;DHT22;8051;50.820;4.884;2023-08-06T08:49:46;14.90;99.90
15906;DHT22;8051;50.820;4.884;2023-08-06T08:52:15;14.90;99.90
15906;DHT22;8051;50.820;4.884;2023-08-06T08:54:44;14.90;99.90
15906;DHT22;8051;50.820;4.884;2023-08-06T08:57:15;14.80;99.90
15906;DHT22;8051;50.820;4.884;2023-08-06T08:59:42;14.50;99.90
15906;DHT22;8051;50.820;4.884;2023-08-06T09:02:11;14.10;99.90
15906;DHT22;8051;50.820;4.884;2023-08-06T09:04:41;13.90;99.90
15906;DHT22;8051;50.820;4.884;2023-08-06T09:07:11;13.80;99.90
15906;DHT22;8051;50.820;4.884;2023-08-06T09:09:40;13.80;99.90
15906;DHT22;8051;50.820;4.884;2023-08-06T09:12:13;14.00;99.90
15906;DHT22;8051;50.820;4.884;2023-08-06T09:14:42;14.10;99.90
15906;DHT22;8051;50.820;4.884;2023-08-06T09:17:10;14.20;99.90
15906;DHT22;8051;50.820;4.884;2023-08-06T09:19:37;14.20;99.90
15906;DHT22;8051;50.820;4.884;2023-08-06T09:22:06;14.20;99.90
15906;DHT22;8051;50.820;4.884;2023-08-06T09:24:39;14.20;99.90
15906;DHT22;8051;50.820;4.884;2023-08-06T09:27:11;14.20;99.90
15906;DHT22;8051;50.820;4.884;2023-08-06T09:29:43;14.30;99.90
15906;DHT22;8051;50.820;4.884;2023-08-06T09:32:11;14.30;99.90
15906;DHT22;8051;50.820;4.884;2023-08-06T09:34:40;14.40;99.90
15906;DHT22;8051;50.820;4.884;2023-08-06T09:37:10;14.30;99.90
15906;DHT22;8051;50.820;4.884;2023-08-06T09:39:40;14.30;99.90
15906;DHT22;8051;50.820;4.884;2023-08-06T09:42:08;14.20;99.90
15906;DHT22;8051;50.820;4.884;2023-08-06T09:44:35;14.20;99.90
15906;DHT22;8051;50.820;4.884;2023-08-06T09:47:04;14.20;99.90
15906;DHT22;8051;50.820;4.884;2023-08-06T09:49:41;14.10;99.90
15906;DHT22;8051;50.820;4.884;2023-08-06T09:52:13;13.90;99.90
15906;DHT22;8051;50.820;4.884;2023-08-06T09:54:43;13.80;99.90
15906;DHT22;8051;50.820;4.884;2023-08-06T09:57:12;13.80;99.90
15906;DHT22;8051;50.820;4.884;2023-08-06T09:59:39;13.80;99.90
15906;DHT22;8051;50.820;4.884;2023-08-06T10:02:12;13.70;99.90
15906;DHT22;8051;50.820;4.884;2023-08-06T10:04:43;13.70;99.90
15906;DHT22;8051;50.820;4.884;2023-08-06T10:07:15;13.70;99.90
15906;DHT22;8051;50.820;4.884;2023-08-06T10:09:45;13.80;99.90
15906;DHT22;8051;50.820;4.884;2023-08-06T10:12:13;13.90;99.90
15906;DHT22;8051;50.820;4.884;2023-08-06T10:14:41;13.90;99.90
15906;DHT22;8051;50.820;4.884;2023-08-06T10:17:10;13.80;99.90
15906;DHT22;8051;50.820;4.884;2023-08-06T10:19:38;13.80;99.90
15906;DHT22;8051;50.820;4.884;2023-08-06T10:22:09;13.80;99.90
15906;DHT22;8051;50.820;4.884;2023-08-06T10:24:49;13.80;99.90
15906;DHT22;8051;50.820;4.884;2023-08-06T10:27:21;13.70;99.90
15906;DHT22;8051;50.820;4.884;2023-08-06T10:29:49;13.70;99.90
15906;DHT22;8051;50.820;4.884;2023-08-06T10:32:16;13.70;99.90
15906;DHT22;8051;50.820;4.884;2023-08-06T10:34:58;13.70;99.90
15906;DHT22;8051;50.820;4.884;2023-08-06T10:37:35;13.70;99.90
15906;DHT22;8051;50.820;4.884;2023-08-06T10:40:06;13.60;99.90
15906;DHT22;8051;50.820;4.884;2023-08-06T10:42:34;13.50;99.90
15906;DHT22;8051;50.820;4.884;2023-08-06T10:45:15;13.40;99.90
15906;DHT22;8051;50.820;4.884;2023-08-06T10:47:44;13.50;99.90
15906;DHT22;8051;50.820;4.884;2023-08-06T10:50:13;13.50;99.90
15906;DHT22;8051;50.820;4.884;2023-08-06T10:52:42;13.50;99.90
15906;DHT22;8051;50.820;4.884;2023-08-06T10:55:12;13.60;99.90
15906;DHT22;8051;50.820;4.884;2023-08-06T10:57:39;13.60;99.90
15906;DHT22;8051;50.820;4.884;2023-08-06T11:00:08;13.50;99.90
15906;DHT22;8051;50.820;4.884;2023-08-06T11:02:38;13.70;99.90
15906;DHT22;8051;50.820;4.884;2023-08-06T11:05:07;13.70;99.90
15906;DHT22;8051;50.820;4.884;2023-08-06T11:07:35;13.60;99.90
15906;DHT22;8051;50.820;4.884;2023-08-06T11:10:03;13.50;99.90
15906;DHT22;8051;50.820;4.884;2023-08-06T11:12:33;13.40;99.90
15906;DHT22;8051;50.820;4.884;2023-08-06T11:15:01;13.40;99.90
15906;DHT22;8051;50.820;4.884;2023-08-06T11:17:30;13.40;99.90
15906;DHT22;8051;50.820;4.884;2023-08-06T11:19:59;13.40;99.90
15906;DHT22;8051;50.820;4.884;2023-08-06T11:22:28;13.60;99.90
15906;DHT22;8051;50.820;4.884;2023-08-06T11:24:55;13.70;99.90
15906;DHT22;8051;50.820;4.884;2023-08-06T11:27:23;13.80;99.90
15906;DHT22;8051;50.820;4.884;2023-08-06T11:29:53;13.80;99.90
15906;DHT22;8051;50.820;4.884;2023-08-06T11:32:21;13.80;99.90
15906;DHT22;8051;50.820;4.884;2023-08-06T11:34:49;13.70;99.90
15906;DHT22;8051;50.820;4.884;2023-08-06T11:37:21;13.60;99.90
15906;DHT22;8051;50.820;4.884;2023-08-06T11:39:50;13.60;99.90
15906;DHT22;8051;50.820;4.884;2023-08-06T11:42:17;13.60;99.90
15906;DHT22;8051;50.820;4.884;2023-08-06T11:44:45;13.60;99.90
15906;DHT22;8051;50.820;4.884;2023-08-06T11:47:15;13.70;99.90
15906;DHT22;8051;50.820;4.884;2023-08-06T11:49:44;13.80;99.90
15906;DHT22;8051;50.820;4.884;2023-08-06T11:52:17;13.80;99.90
15906;DHT22;8051;50.820;4.884;2023-08-06T11:54:47;13.90;99.90
15906;DHT22;8051;50.820;4.884;2023-08-06T11:57:16;14.00;99.90
15906;DHT22;8051;50.820;4.884;2023-08-06T11:59:45;14.10;99.90
15906;DHT22;8051;50.820;4.884;2023-08-06T12:02:15;14.40;99.90
15906;DHT22;8051;50.820;4.884;2023-08-06T12:04:59;14.50;99.90
15906;DHT22;8051;50.820;4.884;2023-08-06T12:07:30;14.30;99.90
15906;DHT22;8051;50.820;4.884;2023-08-06T12:09:58;13.90;99.90
15906;DHT22;8051;50.820;4.884;2023-08-06T12:12:26;13.60;99.90
15906;DHT22;8051;50.820;4.884;2023-08-06T12:14:54;13.50;99.90
15906;DHT22;8051;50.820;4.884;2023-08-06T12:17:25;13.40;99.90
15906;DHT22;8051;50.820;4.884;2023-08-06T12:19:52;13.40;99.90
15906;DHT22;8051;50.820;4.884;2023-08-06T12:22:20;13.40;99.90
15906;DHT22;8051;50.820;4.884;2023-08-06T12:24:47;13.50;99.90
15906;DHT22;8051;50.820;4.884;2023-08-06T12:27:15;13.70;99.90
15906;DHT22;8051;50.820;4.884;2023-08-06T12:29:44;14.00;99.90
15906;DHT22;8051;50.820;4.884;2023-08-06T12:32:12;14.30;99.90
15906;DHT22;8051;50.820;4.884;2023-08-06T12:34:41;14.30;99.90
15906;DHT22;8051;50.820;4.884;2023-08-06T12:37:09;14.40;99.90
15906;DHT22;8051;50.820;4.884;2023-08-06T12:39:37;14.30;99.90
15906;DHT22;8051;50.820;4.884;2023-08-06T12:42:06;14.10;99.90
15906;DHT22;8051;50.820;4.884;2023-08-06T12:44:33;14.10;99.90
15906;DHT22;8051;50.820;4.884;2023-08-06T12:47:00;14.00;99.90
15906;DHT22;8051;50.820;4.884;2023-08-06T12:49:28;13.90;99.90
15906;DHT22;8051;50.820;4.884;2023-08-06T12:51:59;14.00;99.90
15906;DHT22;8051;50.820;4.884;2023-08-06T12:54:27;14.10;99.90
15906;DHT22;8051;50.820;4.884;2023-08-06T12:56:54;14.30;99.90
15906;DHT22;8051;50.820;4.884;2023-08-06T12:59:22;14.50;99.90
15906;DHT22;8051;50.820;4.884;2023-08-06T13:01:50;14.50;99.90
15906;DHT22;8051;50.820;4.884;2023-08-06T13:04:17;14.20;99.90
15906;DHT22;8051;50.820;4.884;2023-08-06T13:06:45;14.10;99.90
15906;DHT22;8051;50.820;4.884;2023-08-06T13:09:14;14.00;99.90
15906;DHT22;8051;50.820;4.884;2023-08-06T13:11:42;13.90;99.90
15906;DHT22;8051;50.820;4.884;2023-08-06T13:14:13;13.80;99.90
15906;DHT22;8051;50.820;4.884;2023-08-06T13:16:42;13.90;99.90
15906;DHT22;8051;50.820;4.884;2023-08-06T13:19:10;13.90;99.90
15906;DHT22;8051;50.820;4.884;2023-08-06T13:21:59;13.90;99.90
15906;DHT22;8051;50.820;4.884;2023-08-06T13:24:29;13.90;99.90
15906;DHT22;8051;50.820;4.884;2023-08-06T13:26:57;13.80;99.90
15906;DHT22;8051;50.820;4.884;2023-08-06T13:29:25;13.80;99.90
15906;DHT22;8051;50.820;4.884;2023-08-06T13:31:53;13.70;99.90
15906;DHT22;8051;50.820;4.884;2023-08-06T13:34:20;13.60;99.90
15906;DHT22;8051;50.820;4.884;2023-08-06T13:36:48;13.50;99.90
15906;DHT22;8051;50.820;4.884;2023-08-06T13:39:15;13.50;99.90
15906;DHT22;8051;50.820;4.884;2023-08-06T13:41:44;13.60;99.90
15906;DHT22;8051;50.820;4.884;2023-08-06T13:44:12;13.60;99.90
15906;DHT22;8051;50.820;4.884;2023-08-06T13:46:42;13.90;99.90
15906;DHT22;8051;50.820;4.884;2023-08-06T13:49:09;14.10;99.90
15906;DHT22;8051;50.820;4.884;2023-08-06T13:51:37;14.30;99.90
15906;DHT22;8051;50.820;4.884;2023-08-06T13:54:04;14.00;99.90
15906;DHT22;8051;50.820;4.884;2023-08-06T13:56:33;13.80;99.90
15906;DHT22;8051;50.820;4.884;2023-08-06T13:59:02;13.60;99.90
15906;DHT22;8051;50.820;4.884;2023-08-06T14:01:29;13.50;99.90
15906;DHT22;8051;50.820;4.884;2023-08-06T14:03:57;13.50;99.90
15906;DHT22;8051;50.820;4.884;2023-08-06T14:06:24;13.40;99.90
15906;DHT22;8051;50.820;4.884;2023-08-06T14:08:52;13.30;99.90
15906;DHT22;8051;50.820;4.884;2023-08-06T14:11:19;13.20;99.90
15906;DHT22;8051;50.820;4.884;2023-08-06T14:13:47;13.10;99.90
15906;DHT22;8051;50.820;4.884;2023-08-06T14:16:16;13.10;99.90
15906;DHT22;8051;50.820;4.884;2023-08-06T14:18:43;13.10;99.90
15906;DHT22;8051;50.820;4.884;2023-08-06T14:21:11;13.00;99.90
15906;DHT22;8051;50.820;4.884;2023-08-06T14:23:38;13.00;99.90
15906;DHT22;8051;50.820;4.884;2023-08-06T14:26:07;13.00;99.90
15906;DHT22;8051;50.820;4.884;2023-08-06T14:28:36;13.00;99.90
15906;DHT22;8051;50.820;4.884;2023-08-06T14:31:04;13.00;99.90
15906;DHT22;8051;50.820;4.884;2023-08-06T14:33:32;12.90;99.90
15906;DHT22;8051;50.820;4.884;2023-08-06T14:36:00;12.90;99.90
15906;DHT22;8051;50.820;4.884;2023-08-06T14:38:28;12.90;99.90
15906;DHT22;8051;50.820;4.884;2023-08-06T14:40:55;12.90;99.90
15906;DHT22;8051;50.820;4.884;2023-08-06T14:43:23;12.90;99.90
15906;DHT22;8051;50.820;4.884;2023-08-06T14:45:50;12.90;99.90
15906;DHT22;8051;50.820;4.884;2023-08-06T14:48:17;12.90;99.90
15906;DHT22;8051;50.820;4.884;2023-08-06T14:50:46;12.90;99.90
15906;DHT22;8051;50.820;4.884;2023-08-06T14:53:14;13.00;99.90
15906;DHT22;8051;50.820;4.884;2023-08-06T14:55:41;13.00;99.90
15906;DHT22;8051;50.820;4.884;2023-08-06T14:58:09;13.00;99.90
15906;DHT22;8051;50.820;4.884;2023-08-06T15:00:36;13.10;99.90
15906;DHT22;8051;50.820;4.884;2023-08-06T15:03:04;13.20;99.90
15906;DHT22;8051;50.820;4.884;2023-08-06T15:05:31;13.30;99.90
15906;DHT22;8051;50.820;4.884;2023-08-06T15:08:00;13.30;99.90
15906;DHT22;8051;50.820;4.884;2023-08-06T15:10:28;13.40;99.90
15906;DHT22;8051;50.820;4.884;2023-08-06T15:12:55;13.40;99.90
15906;DHT22;8051;50.820;4.884;2023-08-06T15:15:23;13.50;99.90
15906;DHT22;8051;50.820;4.884;2023-08-06T15:17:51;13.50;99.90
15906;DHT22;8051;50.820;4.884;2023-08-06T15:20:19;13.60;99.90
15906;DHT22;8051;50.820;4.884;2023-08-06T15:22:47;13.50;99.90
15906;DHT22;8051;50.820;4.884;2023-08-06T15:25:16;13.50;99.90
15906;DHT22;8051;50.820;4.884;2023-08-06T15:27:43;13.40;99.90
15906;DHT22;8051;50.820;4.884;2023-08-06T15:30:11;13.40;99.90
15906;DHT22;8051;50.820;4.884;2023-08-06T15:32:39;13.20;99.90
15906;DHT22;8051;50.820;4.884;2023-08-06T15:35:10;13.20;99.90
15906;DHT22;8051;50.820;4.884;2023-08-06T15:37:37;13.10;99.90
15906;DHT22;8051;50.820;4.884;2023-08-06T15:40:06;13.20;99.90
15906;DHT22;8051;50.820;4.884;2023-08-06T15:42:35;13.20;99.90
15906;DHT22;8051;50.820;4.884;2023-08-06T15:45:03;13.30;99.90
15906;DHT22;8051;50.820;4.884;2023-08-06T15:47:31;13.30;99.90
15906;DHT22;8051;50.820;4.884;2023-08-06T15:50:06;13.40;99.90
15906;DHT22;8051;50.820;4.884;2023-08-06T15:52:34;13.40;99.90